createdAt,value
2022-09-23T00:01:25.182Z,100939.00
2022-09-23T00:03:53.064Z,100938.00
2022-09-23T00:06:23.529Z,100933.00
2022-09-23T00:08:52.338Z,100932.00
2022-09-23T00:11:22.732Z,100930.00
2022-09-23T00:13:53.084Z,100932.00
2022-09-23T00:16:28.666Z,100927.00
2022-09-23T00:18:56.794Z,100915.00
2022-09-23T00:21:25.352Z,100922.00
2022-09-23T00:23:53.226Z,100921.00
2022-09-23T00:26:23.000Z,100923.00
2022-09-23T00:28:51.386Z,100923.00
2022-09-23T00:31:24.683Z,100915.00
2022-09-23T00:33:57.118Z,100926.00
2022-09-23T00:36:25.932Z,100921.00
2022-09-23T00:38:55.305Z,100916.00
2022-09-23T00:41:23.724Z,100909.00
2022-09-23T00:43:59.883Z,100912.00
2022-09-23T00:46:43.763Z,100907.00
2022-09-23T00:49:14.642Z,100910.00
2022-09-23T00:51:47.236Z,100898.00
2022-09-23T00:54:15.392Z,100908.00
2022-09-23T00:56:43.200Z,100903.00
2022-09-23T00:59:11.604Z,100895.00
2022-09-23T01:01:39.848Z,100892.00
2022-09-23T01:04:08.501Z,100893.00
2022-09-23T01:06:36.581Z,100884.00
2022-09-23T01:09:04.452Z,100888.00
2022-09-23T01:11:47.299Z,100881.00
2022-09-23T01:14:57.553Z,100879.00
2022-09-23T01:18:04.604Z,100880.00
2022-09-23T01:20:46.400Z,100874.00
2022-09-23T01:23:14.414Z,100884.00
2022-09-23T01:26:04.224Z,100873.00
2022-09-23T01:28:47.009Z,100865.00
2022-09-23T01:31:55.316Z,100853.00
2022-09-23T01:34:34.053Z,100858.00
2022-09-23T01:37:01.771Z,100853.00
2022-09-23T01:39:39.732Z,100860.00
2022-09-23T01:42:35.863Z,100854.00
2022-09-23T01:45:22.146Z,100859.00
2022-09-23T01:48:00.128Z,100850.00
2022-09-23T01:50:53.929Z,100853.00
2022-09-23T01:53:38.001Z,100846.00
2022-09-23T01:56:26.029Z,100844.00
2022-09-23T01:58:56.959Z,100833.00
2022-09-23T02:01:39.595Z,100833.00
2022-09-23T02:04:22.492Z,100832.00
2022-09-23T02:07:01.267Z,100831.00
2022-09-23T02:09:41.566Z,100826.00
2022-09-23T02:12:14.559Z,100825.00
2022-09-23T02:15:18.114Z,100827.00
2022-09-23T02:17:52.360Z,100832.00
2022-09-23T02:20:24.785Z,100817.00
2022-09-23T02:23:06.513Z,100818.00
2022-09-23T02:25:52.421Z,100820.00
2022-09-23T02:28:27.567Z,100816.00
2022-09-23T02:31:12.179Z,100817.00
2022-09-23T02:33:52.909Z,100824.00
2022-09-23T02:36:37.033Z,100820.00
2022-09-23T02:39:07.709Z,100817.00
2022-09-23T02:42:07.921Z,100811.00
2022-09-23T02:44:36.382Z,100811.00
2022-09-23T02:47:04.172Z,100814.00
2022-09-23T02:49:32.629Z,100804.00
2022-09-23T02:52:04.978Z,100804.00
2022-09-23T02:54:36.431Z,100799.00
2022-09-23T02:57:06.113Z,100807.00
2022-09-23T02:59:40.537Z,100804.00
2022-09-23T03:02:36.451Z,100800.00
2022-09-23T03:05:25.564Z,100802.00
2022-09-23T03:08:29.432Z,100793.00
2022-09-23T03:11:08.831Z,100797.00
2022-09-23T03:13:58.727Z,100793.00
2022-09-23T03:16:53.664Z,100792.00
2022-09-23T03:19:35.699Z,100786.00
2022-09-23T03:22:08.545Z,100785.00
2022-09-23T03:24:38.267Z,100783.00
2022-09-23T03:27:17.946Z,100783.00
2022-09-23T03:29:54.312Z,100784.00
2022-09-23T03:32:25.202Z,100778.00
2022-09-23T03:34:56.479Z,100768.00
2022-09-23T03:37:31.615Z,100768.00
2022-09-23T03:40:23.940Z,100772.00
2022-09-23T03:42:52.419Z,100773.00
2022-09-23T03:45:25.409Z,100764.00
2022-09-23T03:47:53.372Z,100766.00
2022-09-23T03:50:21.545Z,100758.00
2022-09-23T03:52:50.639Z,100763.00
2022-09-23T03:55:19.779Z,100754.00
2022-09-23T03:57:47.765Z,100759.00
2022-09-23T04:00:16.307Z,100765.00
2022-09-23T04:02:44.627Z,100759.00
2022-09-23T04:05:13.398Z,100760.00
2022-09-23T04:07:41.347Z,100756.00
2022-09-23T04:10:09.919Z,100754.00
2022-09-23T04:12:38.400Z,100753.00
2022-09-23T04:15:06.747Z,100756.00
2022-09-23T04:17:34.409Z,100750.00
2022-09-23T04:20:02.384Z,100743.00
2022-09-23T04:22:30.234Z,100750.00
2022-09-23T04:24:58.010Z,100741.00
2022-09-23T04:27:25.831Z,100739.00
2022-09-23T04:29:53.464Z,100740.00
2022-09-23T04:32:21.239Z,100736.00
2022-09-23T04:34:49.091Z,100730.00
2022-09-23T04:37:16.866Z,100735.00
2022-09-23T04:39:44.647Z,100726.00
2022-09-23T04:42:12.517Z,100727.00
2022-09-23T04:44:40.916Z,100730.00
2022-09-23T04:47:11.657Z,100726.00
2022-09-23T04:49:39.466Z,100726.00
2022-09-23T04:52:07.643Z,100723.00
2022-09-23T04:54:35.839Z,100717.00
2022-09-23T04:57:03.507Z,100727.00
2022-09-23T04:59:31.349Z,100732.00
2022-09-23T05:01:59.147Z,100722.00
2022-09-23T05:04:26.961Z,100724.00
2022-09-23T05:06:55.951Z,100722.00
2022-09-23T05:09:25.290Z,100727.00
2022-09-23T05:11:55.827Z,100722.00
2022-09-23T05:14:23.614Z,100723.00
2022-09-23T05:16:51.381Z,100718.00
2022-09-23T05:19:19.152Z,100727.00
2022-09-23T05:21:46.908Z,100721.00
2022-09-23T05:24:15.170Z,100725.00
2022-09-23T05:26:43.069Z,100722.00
2022-09-23T05:29:11.492Z,100724.00
2022-09-23T05:31:39.385Z,100735.00
2022-09-23T05:34:07.532Z,100722.00
2022-09-23T05:36:38.619Z,100718.00
2022-09-23T05:39:08.543Z,100715.00
2022-09-23T05:41:37.030Z,100720.00
2022-09-23T05:44:05.161Z,100718.00
2022-09-23T05:46:33.509Z,100723.00
2022-09-23T05:49:03.337Z,100724.00
2022-09-23T05:51:33.007Z,100716.00
2022-09-23T05:54:04.395Z,100717.00
2022-09-23T05:56:33.812Z,100714.00
2022-09-23T05:59:02.584Z,100721.00
2022-09-23T06:01:34.110Z,100723.00
2022-09-23T06:04:04.440Z,100731.00
2022-09-23T06:06:35.159Z,100722.00
2022-09-23T06:09:03.498Z,100724.00
2022-09-23T06:11:32.323Z,100725.00
2022-09-23T06:14:01.362Z,100732.00
2022-09-23T06:16:31.179Z,100727.00
2022-09-23T06:19:05.051Z,100724.00
2022-09-23T06:21:35.738Z,100723.00
2022-09-23T06:24:03.952Z,100722.00
2022-09-23T06:26:35.270Z,100721.00
2022-09-23T06:29:05.318Z,100718.00
2022-09-23T06:31:33.208Z,100721.00
2022-09-23T06:34:10.474Z,100722.00
2022-09-23T06:36:44.342Z,100714.00
2022-09-23T06:39:14.176Z,100712.00
2022-09-23T06:41:42.194Z,100715.00
2022-09-23T06:44:14.090Z,100720.00
2022-09-23T06:46:42.637Z,100727.00
2022-09-23T06:49:13.679Z,100721.00
2022-09-23T06:51:41.684Z,100726.00
2022-09-23T06:54:09.611Z,100723.00
2022-09-23T06:56:39.550Z,100721.00
2022-09-23T06:59:10.088Z,100725.00
2022-09-23T07:01:38.432Z,100727.00
2022-09-23T07:04:07.942Z,100721.00
2022-09-23T07:06:36.447Z,100716.00
2022-09-23T07:09:06.042Z,100725.00
2022-09-23T07:11:34.154Z,100731.00
2022-09-23T07:14:02.010Z,100723.00
2022-09-23T07:16:29.864Z,100725.00
2022-09-23T07:18:57.696Z,100725.00
2022-09-23T07:21:25.565Z,100726.00
2022-09-23T07:23:54.009Z,100726.00
2022-09-23T07:26:23.015Z,100729.00
2022-09-23T07:28:57.132Z,100734.00
2022-09-23T07:31:37.103Z,100727.00
2022-09-23T07:34:06.665Z,100725.00
2022-09-23T07:36:37.617Z,100725.00
2022-09-23T07:39:05.558Z,100722.00
2022-09-23T07:41:34.830Z,100731.00
2022-09-23T07:44:03.383Z,100724.00
2022-09-23T07:46:34.269Z,100720.00
2022-09-23T07:49:03.408Z,100716.00
2022-09-23T07:51:36.312Z,100715.00
2022-09-23T07:54:08.089Z,100712.00
2022-09-23T07:56:36.122Z,100714.00
2022-09-23T07:59:04.921Z,100721.00
2022-09-23T08:01:35.739Z,100709.00
2022-09-23T08:04:17.314Z,100711.00
2022-09-23T08:06:50.665Z,100713.00
2022-09-23T08:09:22.399Z,100723.00
2022-09-23T08:11:51.275Z,100711.00
2022-09-23T08:14:19.432Z,100715.00
2022-09-23T08:16:48.093Z,100715.00
2022-09-23T08:19:16.362Z,100718.00
2022-09-23T08:21:47.749Z,100706.00
2022-09-23T08:24:16.643Z,100713.00
2022-09-23T08:26:46.138Z,100705.00
2022-09-23T08:29:15.495Z,100713.00
2022-09-23T08:31:43.578Z,100711.00
2022-09-23T08:34:11.641Z,100708.00
2022-09-23T08:36:39.459Z,100712.00
2022-09-23T08:39:07.813Z,100708.00
2022-09-23T08:41:58.376Z,100707.00
2022-09-23T08:44:28.716Z,100711.00
2022-09-23T08:47:25.256Z,100711.00
2022-09-23T08:49:58.356Z,100714.00
2022-09-23T08:52:53.008Z,100712.00
2022-09-23T08:55:24.571Z,100708.00
2022-09-23T08:58:23.304Z,100697.00
2022-09-23T09:01:08.509Z,100701.00
2022-09-23T09:04:03.368Z,100692.00
2022-09-23T09:06:52.478Z,100701.00
2022-09-23T09:09:42.084Z,100701.00
2022-09-23T09:12:19.314Z,100700.00
2022-09-23T09:14:57.296Z,100705.00
2022-09-23T09:17:48.715Z,100704.00
2022-09-23T09:20:26.032Z,100705.00
2022-09-23T09:22:58.098Z,100708.00
2022-09-23T09:25:58.319Z,100706.00
2022-09-23T09:28:45.845Z,100701.00
2022-09-23T09:31:36.344Z,100701.00
2022-09-23T09:34:25.062Z,100702.00
2022-09-23T09:37:18.865Z,100701.00
2022-09-23T09:39:46.712Z,100704.00
2022-09-23T09:42:40.824Z,100694.00
2022-09-23T09:45:35.398Z,100693.00
2022-09-23T09:48:32.649Z,100695.00
2022-09-23T09:51:27.963Z,100688.00
2022-09-23T09:54:17.302Z,100685.00
2022-09-23T09:56:45.527Z,100684.00
2022-09-23T09:59:27.962Z,100677.00
2022-09-23T10:02:26.040Z,100684.00
2022-09-23T10:05:04.035Z,100680.00
2022-09-23T10:07:34.764Z,100675.00
2022-09-23T10:10:32.820Z,100673.00
2022-09-23T10:13:21.072Z,100677.00
2022-09-23T10:15:48.613Z,100666.00
2022-09-23T10:18:47.852Z,100671.00
2022-09-23T10:21:18.396Z,100670.00
2022-09-23T10:23:53.056Z,100668.00
2022-09-23T10:26:44.306Z,100681.00
2022-09-23T10:29:48.717Z,100677.00
2022-09-23T10:32:40.218Z,100679.00
2022-09-23T10:35:11.486Z,100676.00
2022-09-23T10:38:01.783Z,100681.00
2022-09-23T10:41:17.419Z,100666.00
2022-09-23T10:45:03.309Z,100665.00
2022-09-23T10:48:00.605Z,100662.00
2022-09-23T10:50:48.780Z,100664.00
2022-09-23T10:53:29.094Z,100659.00
2022-09-23T10:56:23.856Z,100653.00
2022-09-23T10:59:06.760Z,100651.00
2022-09-23T11:01:43.743Z,100655.00
2022-09-23T11:05:06.320Z,100655.00
2022-09-23T11:07:39.493Z,100660.00
2022-09-23T11:10:44.963Z,100657.00
2022-09-23T11:13:56.675Z,100646.00
2022-09-23T11:16:40.538Z,100648.00
2022-09-23T11:20:01.632Z,100655.00
2022-09-23T11:22:59.655Z,100643.00
2022-09-23T11:25:58.973Z,100641.00
2022-09-23T11:29:00.601Z,100645.00
2022-09-23T11:32:14.406Z,100641.00
2022-09-23T11:35:13.387Z,100635.00
2022-09-23T11:37:46.587Z,100629.00
2022-09-23T11:40:36.195Z,100624.00
2022-09-23T11:43:21.957Z,100635.00
2022-09-23T11:46:15.603Z,100619.00
2022-09-23T11:49:06.592Z,100618.00
2022-09-23T11:52:23.091Z,100613.00
2022-09-23T11:54:57.812Z,100612.00
2022-09-23T11:57:53.211Z,100600.00
2022-09-23T12:00:34.429Z,100596.00
2022-09-23T12:03:40.540Z,100602.00
2022-09-23T12:06:37.259Z,100594.00
2022-09-23T12:09:17.080Z,100601.00
2022-09-23T12:12:21.032Z,100596.00
2022-09-23T12:15:34.748Z,100588.00
2022-09-23T12:18:40.330Z,100578.00
2022-09-23T12:22:09.471Z,100593.00
2022-09-23T12:25:15.225Z,100580.00
2022-09-23T12:27:51.412Z,100582.00
2022-09-23T12:30:27.164Z,100579.00
2022-09-23T12:33:28.042Z,100571.00
2022-09-23T12:36:15.947Z,100583.00
2022-09-23T12:38:53.495Z,100578.00
2022-09-23T12:41:26.434Z,100586.00
2022-09-23T12:43:59.097Z,100581.00
2022-09-23T12:46:28.159Z,100577.00
2022-09-23T12:48:57.539Z,100575.00
2022-09-23T12:51:30.721Z,100564.00
2022-09-23T12:54:23.677Z,100564.00
2022-09-23T12:56:59.393Z,100559.00
2022-09-23T13:00:13.060Z,100560.00
2022-09-23T13:03:12.449Z,100559.00
2022-09-23T13:06:20.533Z,100556.00
2022-09-23T13:08:49.739Z,100547.00
2022-09-23T13:11:27.975Z,100546.00
2022-09-23T13:14:01.207Z,100549.00
2022-09-23T13:16:46.541Z,100542.00
2022-09-23T13:19:26.268Z,100541.00
2022-09-23T13:22:16.625Z,100551.00
2022-09-23T13:24:53.927Z,100535.00
2022-09-23T13:27:28.766Z,100531.00
2022-09-23T13:30:14.799Z,100529.00
2022-09-23T13:33:14.924Z,100534.00
2022-09-23T13:35:45.005Z,100524.00
2022-09-23T13:38:18.069Z,100520.00
2022-09-23T13:40:45.495Z,100516.00
2022-09-23T13:43:26.981Z,100512.00
2022-09-23T13:45:55.384Z,100513.00
2022-09-23T13:48:25.590Z,100503.00
2022-09-23T13:50:54.078Z,100507.00
2022-09-23T13:53:30.505Z,100493.00
2022-09-23T13:56:13.416Z,100494.00
2022-09-23T13:58:41.909Z,100486.00
2022-09-23T14:01:32.529Z,100495.00
2022-09-23T14:04:02.530Z,100491.00
2022-09-23T14:06:33.429Z,100486.00
2022-09-23T14:09:01.926Z,100482.00
2022-09-23T14:11:33.854Z,100470.00
2022-09-23T14:14:07.396Z,100474.00
2022-09-23T14:16:39.817Z,100474.00
2022-09-23T14:19:11.725Z,100476.00
2022-09-23T14:21:40.881Z,100472.00
2022-09-23T14:24:21.426Z,100464.00
2022-09-23T14:27:07.331Z,100456.00
2022-09-23T14:29:37.801Z,100461.00
2022-09-23T14:32:18.851Z,100460.00
2022-09-23T14:34:51.906Z,100466.00
2022-09-23T14:37:43.411Z,100461.00
2022-09-23T14:40:21.442Z,100457.00
2022-09-23T14:43:17.523Z,100452.00
2022-09-23T14:45:48.045Z,100452.00
2022-09-23T14:48:29.923Z,100455.00
2022-09-23T14:51:01.523Z,100450.00
2022-09-23T14:53:40.865Z,100447.00
2022-09-23T14:56:25.203Z,100461.00
2022-09-23T14:58:56.131Z,100444.00
2022-09-23T15:01:33.011Z,100442.00
2022-09-23T15:04:19.262Z,100438.00
2022-09-23T15:06:55.067Z,100433.00
2022-09-23T15:09:27.922Z,100438.00
2022-09-23T15:12:12.454Z,100437.00
2022-09-23T15:14:50.405Z,100432.00
2022-09-23T15:17:35.362Z,100438.00
2022-09-23T15:20:26.763Z,100439.00
2022-09-23T15:22:56.779Z,100433.00
2022-09-23T15:25:36.441Z,100434.00
2022-09-23T15:28:20.181Z,100430.00
2022-09-23T15:30:50.203Z,100435.00
2022-09-23T15:33:18.034Z,100426.00
2022-09-23T15:35:49.420Z,100425.00
2022-09-23T15:38:18.066Z,100437.00
2022-09-23T15:40:45.963Z,100435.00
2022-09-23T15:43:20.606Z,100432.00
2022-09-23T15:45:58.222Z,100429.00
2022-09-23T15:48:35.922Z,100433.00
2022-09-23T15:51:07.144Z,100425.00
2022-09-23T15:53:38.195Z,100432.00
2022-09-23T15:56:08.081Z,100429.00
2022-09-23T15:58:37.642Z,100434.00
2022-09-23T16:01:06.128Z,100418.00
2022-09-23T16:03:34.747Z,100423.00
2022-09-23T16:06:03.466Z,100424.00
2022-09-23T16:08:33.143Z,100422.00
2022-09-23T16:11:00.926Z,100418.00
2022-09-23T16:13:28.476Z,100418.00
2022-09-23T16:15:56.534Z,100414.00
2022-09-23T16:18:23.902Z,100406.00
2022-09-23T16:20:51.381Z,100407.00
2022-09-23T16:23:34.827Z,100405.00
2022-09-23T16:26:17.309Z,100410.00
2022-09-23T16:28:46.830Z,100408.00
2022-09-23T16:31:16.216Z,100399.00
2022-09-23T16:33:45.533Z,100402.00
2022-09-23T16:36:31.291Z,100405.00
2022-09-23T16:39:04.760Z,100402.00
2022-09-23T16:41:32.657Z,100401.00
2022-09-23T16:44:02.330Z,100391.00
2022-09-23T16:46:29.995Z,100379.00
2022-09-23T16:48:58.681Z,100391.00
2022-09-23T16:51:42.194Z,100394.00
2022-09-23T16:54:13.771Z,100395.00
2022-09-23T16:56:44.571Z,100392.00
2022-09-23T16:59:16.297Z,100389.00
2022-09-23T17:02:03.075Z,100386.00
2022-09-23T17:04:30.708Z,100385.00
2022-09-23T17:06:58.279Z,100390.00
2022-09-23T17:09:29.013Z,100383.00
2022-09-23T17:12:15.287Z,100384.00
2022-09-23T17:14:43.359Z,100381.00
2022-09-23T17:17:10.665Z,100386.00
2022-09-23T17:19:41.523Z,100396.00
2022-09-23T17:22:10.179Z,100390.00
2022-09-23T17:24:37.621Z,100376.00
2022-09-23T17:27:05.236Z,100389.00
2022-09-23T17:29:33.026Z,100383.00
2022-09-23T17:32:00.852Z,100382.00
2022-09-23T17:34:29.091Z,100381.00
2022-09-23T17:36:56.791Z,100393.00
2022-09-23T17:39:24.412Z,100392.00
2022-09-23T17:41:55.284Z,100386.00
2022-09-23T17:44:24.431Z,100389.00
2022-09-23T17:46:52.401Z,100389.00
2022-09-23T17:49:20.453Z,100378.00
2022-09-23T17:51:48.119Z,100378.00
2022-09-23T17:54:16.048Z,100375.00
2022-09-23T17:56:43.997Z,100380.00
2022-09-23T17:59:12.917Z,100382.00
2022-09-23T18:01:41.007Z,100391.00
2022-09-23T18:04:08.836Z,100381.00
2022-09-23T18:06:38.306Z,100381.00
2022-09-23T18:09:07.785Z,100380.00
2022-09-23T18:11:37.940Z,100382.00
2022-09-23T18:14:13.589Z,100380.00
2022-09-23T18:16:42.857Z,100394.00
2022-09-23T18:19:16.004Z,100387.00
2022-09-23T18:21:46.596Z,100392.00
2022-09-23T18:24:31.846Z,100384.00
2022-09-23T18:27:00.736Z,100388.00
2022-09-23T18:29:28.920Z,100394.00
2022-09-23T18:31:56.958Z,100391.00
2022-09-23T18:34:25.396Z,100380.00
2022-09-23T18:36:56.204Z,100389.00
2022-09-23T18:39:24.580Z,100382.00
2022-09-23T18:41:52.417Z,100384.00
2022-09-23T18:44:20.447Z,100380.00
2022-09-23T18:46:51.114Z,100383.00
2022-09-23T18:49:37.437Z,100382.00
2022-09-23T18:52:05.160Z,100376.00
2022-09-23T18:54:32.941Z,100384.00
2022-09-23T18:57:01.630Z,100388.00
2022-09-23T18:59:30.693Z,100378.00
2022-09-23T19:01:59.098Z,100380.00
2022-09-23T19:04:27.856Z,100381.00
2022-09-23T19:06:56.849Z,100375.00
2022-09-23T19:09:25.220Z,100375.00
2022-09-23T19:11:53.514Z,100371.00
2022-09-23T19:14:21.627Z,100377.00
2022-09-23T19:16:49.573Z,100380.00
2022-09-23T19:19:17.399Z,100382.00
2022-09-23T19:21:45.272Z,100381.00
2022-09-23T19:24:16.207Z,100379.00
2022-09-23T19:26:44.534Z,100380.00
2022-09-23T19:29:22.061Z,100377.00
2022-09-23T19:31:50.227Z,100377.00
2022-09-23T19:34:20.191Z,100374.00
2022-09-23T19:36:48.910Z,100375.00
2022-09-23T19:39:24.931Z,100375.00
2022-09-23T19:41:54.708Z,100369.00
2022-09-23T19:44:24.485Z,100373.00
2022-09-23T19:46:56.458Z,100367.00
2022-09-23T19:49:28.345Z,100369.00
2022-09-23T19:51:56.538Z,100365.00
2022-09-23T19:54:27.601Z,100360.00
2022-09-23T19:56:55.750Z,100360.00
2022-09-23T19:59:23.513Z,100360.00
2022-09-23T20:01:51.595Z,100358.00
2022-09-23T20:04:19.400Z,100348.00
2022-09-23T20:06:47.891Z,100352.00
2022-09-23T20:09:15.804Z,100349.00
2022-09-23T20:11:44.481Z,100353.00
2022-09-23T20:14:13.455Z,100350.00
2022-09-23T20:16:41.301Z,100345.00
2022-09-23T20:19:09.374Z,100344.00
2022-09-23T20:21:37.024Z,100341.00
2022-09-23T20:24:06.696Z,100340.00
2022-09-23T20:26:53.086Z,100326.00
2022-09-23T20:29:20.954Z,100338.00
2022-09-23T20:31:49.040Z,100334.00
2022-09-23T20:34:16.898Z,100325.00
2022-09-23T20:36:44.653Z,100324.00
2022-09-23T20:39:12.639Z,100323.00
2022-09-23T20:41:40.343Z,100320.00
2022-09-23T20:44:12.659Z,100315.00
2022-09-23T20:46:48.343Z,100318.00
2022-09-23T20:49:20.993Z,100316.00
2022-09-23T20:51:49.686Z,100317.00
2022-09-23T20:54:21.117Z,100314.00
2022-09-23T20:56:48.715Z,100315.00
2022-09-23T20:59:18.021Z,100304.00
2022-09-23T21:01:47.840Z,100303.00
2022-09-23T21:04:15.873Z,100300.00
2022-09-23T21:06:43.550Z,100304.00
2022-09-23T21:09:11.476Z,100306.00
2022-09-23T21:11:39.196Z,100303.00
2022-09-23T21:14:07.267Z,100307.00
2022-09-23T21:16:35.524Z,100311.00
2022-09-23T21:19:04.053Z,100300.00
2022-09-23T21:21:32.027Z,100298.00
2022-09-23T21:24:17.422Z,100298.00
2022-09-23T21:26:48.046Z,100295.00
2022-09-23T21:29:16.160Z,100289.00
2022-09-23T21:31:44.074Z,100291.00
2022-09-23T21:34:12.847Z,100291.00
2022-09-23T21:36:43.848Z,100293.00
2022-09-23T21:39:12.377Z,100285.00
2022-09-23T21:41:40.556Z,100287.00
2022-09-23T21:44:08.766Z,100290.00
2022-09-23T21:46:38.472Z,100288.00
2022-09-23T21:49:06.610Z,100295.00
2022-09-23T21:51:40.973Z,100289.00
2022-09-23T21:54:15.912Z,100295.00
2022-09-23T21:56:44.456Z,100295.00
2022-09-23T21:59:12.246Z,100295.00
2022-09-23T22:01:43.877Z,100288.00
2022-09-23T22:04:17.505Z,100288.00
2022-09-23T22:06:46.010Z,100294.00
2022-09-23T22:09:17.085Z,100287.00
2022-09-23T22:12:03.760Z,100287.00
2022-09-23T22:14:32.209Z,100293.00
2022-09-23T22:17:02.458Z,100287.00
2022-09-23T22:19:36.977Z,100289.00
2022-09-23T22:22:15.407Z,100286.00
2022-09-23T22:24:44.456Z,100289.00
2022-09-23T22:27:13.793Z,100287.00
2022-09-23T22:30:00.022Z,100291.00
2022-09-23T22:32:55.304Z,100289.00
2022-09-23T22:35:23.122Z,100292.00
2022-09-23T22:37:50.879Z,100274.00
2022-09-23T22:40:18.888Z,100280.00
2022-09-23T22:42:46.817Z,100277.00
2022-09-23T22:45:14.549Z,100279.00
2022-09-23T22:47:45.530Z,100273.00
2022-09-23T22:50:16.595Z,100281.00
2022-09-23T22:52:44.466Z,100279.00
2022-09-23T22:55:13.223Z,100277.00
2022-09-23T22:57:41.029Z,100276.00
2022-09-23T23:00:10.066Z,100271.00
2022-09-23T23:02:37.883Z,100271.00
2022-09-23T23:05:06.016Z,100273.00
2022-09-23T23:07:36.303Z,100273.00
2022-09-23T23:10:05.030Z,100270.00
2022-09-23T23:12:33.667Z,100265.00
2022-09-23T23:15:01.405Z,100266.00
2022-09-23T23:17:30.085Z,100257.00
2022-09-23T23:19:58.272Z,100252.00
2022-09-23T23:22:28.632Z,100252.00
2022-09-23T23:24:56.462Z,100249.00
2022-09-23T23:27:24.389Z,100248.00
2022-09-23T23:29:52.316Z,100234.00
2022-09-23T23:32:20.121Z,100238.00
2022-09-23T23:34:48.057Z,100228.00
2022-09-23T23:37:20.077Z,100226.00
2022-09-23T23:39:49.016Z,100225.00
2022-09-23T23:42:16.819Z,100239.00
2022-09-23T23:44:44.635Z,100232.00
2022-09-23T23:47:12.702Z,100239.00
2022-09-23T23:49:40.595Z,100240.00
2022-09-23T23:52:08.364Z,100237.00
2022-09-23T23:54:36.061Z,100235.00
2022-09-23T23:57:03.718Z,100230.00
2022-09-23T23:59:31.612Z,100235.00
